Time;durP1;ratioP1;P1;durP2;ratioP2;P2;SDS_P1;SDS_P2;PMS_P1;PMS_P2;Temp;Humidity;BMP_temperature;BMP_pressure;BME280_temperature;BME280_humidity;BME280_pressure;Samples;Min_cycle;Max_cycle;Signal;HPM_P1;HPM_P2
2023/10/26 00:00:30;;;;;;;13.30;7.68;;;;;;;17.99;55.88;99369.09;5029023;28;20087;-60
2023/10/26 00:02:56;;;;;;;13.80;7.97;;;;;;;17.98;55.43;99372.81;5012366;28;20413;-60
2023/10/26 00:05:22;;;;;;;13.07;7.30;;;;;;;18.04;55.99;99371.16;5029010;28;20116;-60
2023/10/26 00:07:47;;;;;;;12.63;7.28;;;;;;;18.04;55.01;99382.81;5045600;28;20125;-60
2023/10/26 00:10:13;;;;;;;12.50;7.55;;;;;;;17.99;55.48;99371.78;5013750;28;20049;-59
2023/10/26 00:12:39;;;;;;;12.88;8.15;;;;;;;18.05;56.25;99389.09;5045042;28;20084;-60
2023/10/26 00:15:05;;;;;;;14.45;8.32;;;;;;;18.03;55.68;99386.56;5013665;28;20026;-60
2023/10/26 00:17:30;;;;;;;12.73;8.05;;;;;;;18.07;55.53;99386.16;5012320;28;20379;-59
2023/10/26 00:19:55;;;;;;;15.73;8.88;;;;;;;18.07;55.80;99388.84;5013664;28;20497;-60
2023/10/26 00:22:21;;;;;;;12.88;8.60;;;;;;;18.08;55.21;99393.25;5028708;28;20030;-60
2023/10/26 00:24:47;;;;;;;14.65;8.05;;;;;;;18.05;55.18;99389.09;5045521;28;20040;-59
2023/10/26 00:27:13;;;;;;;14.65;8.48;;;;;;;18.01;55.85;99396.78;5028775;28;20065;-60
2023/10/26 00:29:40;;;;;;;17.33;10.30;;;;;;;18.02;55.51;99401.19;5045282;28;20513;-60
2023/10/26 00:32:06;;;;;;;13.05;8.55;;;;;;;18.03;56.02;99408.25;5013499;28;20042;-60
2023/10/26 00:34:32;;;;;;;17.02;9.60;;;;;;;17.99;55.56;99404.31;5011966;28;20099;-60
2023/10/26 00:36:57;;;;;;;14.38;8.70;;;;;;;17.98;55.90;99407.22;5012285;28;20610;-59
2023/10/26 00:39:22;;;;;;;15.10;8.48;;;;;;;17.96;55.86;99407.44;5013191;28;20037;-60
2023/10/26 00:41:52;;;;;;;14.32;9.10;;;;;;;17.94;55.87;99412.25;5045036;28;20030;-60
2023/10/26 00:44:17;;;;;;;14.48;8.48;;;;;;;17.95;55.75;99416.59;5045150;28;20381;-60
2023/10/26 00:46:43;;;;;;;17.42;9.23;;;;;;;17.97;56.13;99421.81;5028431;28;20084;-60
2023/10/26 00:49:11;;;;;;;14.95;9.45;;;;;;;18.01;55.97;99426.59;5045285;28;20449;-60
2023/10/26 00:51:37;;;;;;;15.98;8.82;;;;;;;18.03;55.25;99427.22;5044760;28;20105;-60
2023/10/26 00:54:02;;;;;;;17.73;9.73;;;;;;;18.04;55.83;99428.06;5012137;28;20455;-60
2023/10/26 00:56:29;;;;;;;19.70;10.10;;;;;;;18.07;55.05;99429.50;5044808;28;20022;-59
2023/10/26 00:58:55;;;;;;;15.98;9.65;;;;;;;18.10;55.50;99437.22;5012975;28;20528;-60
2023/10/26 01:01:21;;;;;;;18.05;9.77;;;;;;;18.10;55.69;99439.94;5044834;28;20053;-60
2023/10/26 01:03:47;;;;;;;15.95;8.90;;;;;;;18.11;55.35;99445.16;5011450;28;20080;-60
2023/10/26 01:06:12;;;;;;;16.98;9.35;;;;;;;18.11;55.25;99436.19;5011736;28;20037;-60
2023/10/26 01:08:38;;;;;;;16.70;9.40;;;;;;;18.09;55.58;99432.84;5012162;28;20021;-60
2023/10/26 01:11:03;;;;;;;16.00;9.13;;;;;;;18.12;54.58;99437.84;5013180;28;20022;-60
2023/10/26 01:13:30;;;;;;;16.38;9.35;;;;;;;18.11;55.08;99434.31;5011724;28;20033;-60
2023/10/26 01:15:56;;;;;;;17.40;9.85;;;;;;;18.11;54.91;99430.75;5011760;28;20465;-59
2023/10/26 01:18:21;;;;;;;16.10;9.18;;;;;;;18.13;55.00;99431.38;5044829;28;20030;-60
2023/10/26 01:20:47;;;;;;;15.80;8.38;;;;;;;18.15;54.79;99431.97;5011582;28;20053;-60
2023/10/26 01:23:12;;;;;;;13.85;8.30;;;;;;;18.15;54.96;99427.41;5011533;28;20030;-60
2023/10/26 01:25:38;;;;;;;13.93;7.65;;;;;;;18.16;55.35;99434.50;5044595;28;20049;-60
2023/10/26 01:28:04;;;;;;;13.48;9.20;;;;;;;18.17;55.02;99435.34;5011806;28;20025;-60
2023/10/26 01:30:31;;;;;;;14.77;7.70;;;;;;;18.19;55.30;99433.25;5044680;28;20071;-60
2023/10/26 01:32:56;;;;;;;16.70;8.80;;;;;;;18.19;54.97;99435.94;5027773;28;20103;-60
2023/10/26 01:35:22;;;;;;;16.55;9.40;;;;;;;18.20;55.10;99429.50;5013134;28;20466;-60
2023/10/26 01:37:47;;;;;;;17.05;8.73;;;;;;;18.19;54.65;99435.94;5044699;28;20030;-59
2023/10/26 01:40:13;;;;;;;14.00;8.48;;;;;;;18.19;54.76;99433.25;5012688;28;20022;-60
2023/10/26 01:42:38;;;;;;;14.77;9.65;;;;;;;18.17;55.08;99429.91;5044481;28;20037;-60
2023/10/26 01:45:04;;;;;;;16.17;9.18;;;;;;;18.20;54.94;99443.84;5044609;28;20037;-60
2023/10/26 01:47:29;;;;;;;20.88;10.05;;;;;;;18.19;55.11;99435.94;5029766;28;20045;-60
2023/10/26 01:49:56;;;;;;;16.70;9.55;;;;;;;18.19;55.11;99436.78;5015137;28;20057;-59
2023/10/26 01:52:21;;;;;;;16.48;9.68;;;;;;;18.21;54.50;99442.81;5015227;28;20030;-62
2023/10/26 01:54:47;;;;;;;16.50;9.20;;;;;;;18.22;54.89;99444.50;5048289;28;20026;-60
2023/10/26 01:57:12;;;;;;;18.27;9.57;;;;;;;18.20;54.69;99438.44;5016404;28;20036;-60
2023/10/26 01:59:39;;;;;;;17.27;10.85;;;;;;;18.20;55.22;99435.72;5031290;28;20033;-60
2023/10/26 02:02:05;;;;;;;33.15;10.48;;;;;;;18.18;55.31;99436.97;5014811;28;20037;-60
2023/10/26 02:04:30;;;;;;;15.77;9.70;;;;;;;18.19;54.73;99439.50;5031303;28;20038;-60
2023/10/26 02:06:57;;;;;;;20.67;10.80;;;;;;;18.17;55.01;99436.19;5016220;28;20026;-60
2023/10/26 02:09:22;;;;;;;16.08;9.73;;;;;;;18.18;54.97;99443.25;5014873;28;20026;-60
2023/10/26 02:11:47;;;;;;;22.05;10.85;;;;;;;18.19;54.73;99441.38;5016792;28;20037;-60
2023/10/26 02:14:13;;;;;;;19.92;10.50;;;;;;;18.16;54.77;99437.22;5017296;28;20033;-61
2023/10/26 02:16:38;;;;;;;18.35;9.30;;;;;;;18.18;54.87;99447.81;5032452;28;20037;-60
2023/10/26 02:19:04;;;;;;;20.00;12.27;;;;;;;18.16;55.08;99449.94;5015711;28;20505;-60
2023/10/26 02:21:29;;;;;;;18.50;11.25;;;;;;;18.16;54.94;99453.47;5016012;28;20037;-60
2023/10/26 02:23:55;;;;;;;18.75;12.00;;;;;;;18.15;54.64;99448.25;5014549;28;20076;-60
2023/10/26 02:26:20;;;;;;;17.05;10.10;;;;;;;18.14;55.06;99450.16;5015788;28;20041;-60
2023/10/26 02:28:46;;;;;;;20.88;11.45;;;;;;;18.16;54.57;99439.09;5015358;28;20516;-60
2023/10/26 02:31:11;;;;;;;20.98;11.63;;;;;;;18.14;55.20;99452.03;5015773;28;20033;-60
2023/10/26 02:33:36;;;;;;;21.55;11.63;;;;;;;18.14;54.60;99446.59;5014666;28;20030;-60
2023/10/26 02:36:04;;;;;;;17.83;11.05;;;;;;;18.16;54.82;99449.94;5015511;28;20030;-60
2023/10/26 02:38:30;;;;;;;18.67;10.80;;;;;;;18.12;55.12;99451.41;5015886;28;20030;-60
2023/10/26 02:41:02;;;;;;;22.15;11.93;;;;;;;18.12;54.48;99438.66;5014548;28;20029;-60
2023/10/26 02:43:27;;;;;;;20.95;11.25;;;;;;;18.14;54.66;99446.59;5015716;28;20041;-60
2023/10/26 02:46:04;;;;;;;21.40;11.93;;;;;;;18.12;55.10;99454.94;5014773;28;20116;-60
2023/10/26 02:48:31;;;;;;;18.63;11.32;;;;;;;18.14;55.03;99458.28;5015192;28;20030;-60
2023/10/26 02:50:57;;;;;;;21.95;10.95;;;;;;;18.14;54.81;99450.16;5015581;28;20034;-60
2023/10/26 02:53:22;;;;;;;19.67;10.77;;;;;;;18.16;54.47;99447.22;5032602;28;20037;-60
2023/10/26 02:55:47;;;;;;;22.30;11.55;;;;;;;18.18;54.39;99442.41;5014391;28;20037;-60
2023/10/26 02:58:13;;;;;;;20.38;11.13;;;;;;;18.17;54.61;99440.75;5030399;28;20465;-60
2023/10/26 03:00:38;;;;;;;20.17;11.38;;;;;;;18.18;54.44;99442.41;5015757;28;20040;-60
2023/10/26 03:03:03;;;;;;;20.23;11.60;;;;;;;18.19;54.66;99441.38;5030831;28;20121;-60
2023/10/26 03:05:30;;;;;;;21.08;10.88;;;;;;;18.19;54.78;99441.38;5015752;28;20490;-60
2023/10/26 03:07:55;;;;;;;23.02;11.95;;;;;;;18.20;54.83;99456.59;5014450;28;20032;-60
2023/10/26 03:10:20;;;;;;;21.73;13.10;;;;;;;18.18;54.04;99448.66;5015558;28;20112;-60
2023/10/26 03:12:47;;;;;;;24.15;12.52;;;;;;;18.19;55.23;99444.91;5014403;28;20030;-60
2023/10/26 03:15:12;;;;;;;21.80;12.45;;;;;;;18.19;54.66;99452.22;5014052;28;20474;-60
2023/10/26 03:17:38;;;;;;;22.00;12.13;;;;;;;18.20;54.72;99456.59;5046579;28;20109;-60
2023/10/26 03:20:05;;;;;;;25.83;12.75;;;;;;;18.19;54.69;99449.50;4996214;28;20088;-60
2023/10/26 03:22:31;;;;;;;26.63;13.30;;;;;;;18.21;54.33;99447.41;5014806;28;20036;-60
2023/10/26 03:24:57;;;;;;;26.30;13.63;;;;;;;18.19;54.38;99444.09;5013636;28;20088;-60
2023/10/26 03:27:22;;;;;;;24.48;12.55;;;;;;;18.18;54.57;99439.69;5013549;28;20030;-60
2023/10/26 03:29:47;;;;;;;26.38;13.25;;;;;;;18.18;54.93;99431.56;5039800;28;20091;-60
2023/10/26 03:32:13;;;;;;;24.25;13.05;;;;;;;18.16;54.48;99429.09;5020696;28;20034;-60
2023/10/26 03:34:38;;;;;;;23.50;12.32;;;;;;;18.18;54.56;99431.56;5014432;28;20026;-60
2023/10/26 03:37:03;;;;;;;27.00;13.10;;;;;;;18.19;54.32;99430.53;5014446;28;20050;-60
2023/10/26 03:39:29;;;;;;;25.77;12.80;;;;;;;18.17;54.72;99429.91;5013079;28;20041;-60
2023/10/26 03:41:55;;;;;;;25.48;13.88;;;;;;;18.19;54.39;99422.41;5012912;28;20040;-60
2023/10/26 03:44:20;;;;;;;24.92;12.43;;;;;;;18.12;54.27;99416.19;4996603;28;20504;-60
2023/10/26 03:46:46;;;;;;;30.92;14.15;;;;;;;18.16;54.66;99420.13;5011971;28;20041;-60
2023/10/26 03:49:11;;;;;;;23.67;12.65;;;;;;;18.16;54.96;99417.41;5014020;28;20037;-60
2023/10/26 03:51:37;;;;;;;26.65;13.43;;;;;;;18.12;54.87;99413.47;4996269;28;20402;-60
2023/10/26 03:54:03;;;;;;;22.48;12.60;;;;;;;18.12;54.32;99422.41;5029460;28;20030;-60
2023/10/26 03:56:28;;;;;;;24.40;13.50;;;;;;;18.10;54.10;99429.91;5045701;28;20036;-60
2023/10/26 03:58:54;;;;;;;27.58;13.32;;;;;;;18.07;54.26;99429.50;5029410;28;20034;-60
2023/10/26 04:01:19;;;;;;;26.13;13.75;;;;;;;18.06;54.25;99436.00;5012604;28;20034;-60
2023/10/26 04:03:44;;;;;;;26.42;12.95;;;;;;;18.03;53.94;99435.34;4996249;28;20133;-60
2023/10/26 04:06:10;;;;;;;25.40;12.38;;;;;;;18.00;54.42;99429.53;5011690;28;20125;-60
2023/10/26 04:08:37;;;;;;;23.02;12.90;;;;;;;17.98;54.58;99435.16;5012034;28;20513;-60
2023/10/26 04:11:02;;;;;;;21.85;11.30;;;;;;;17.96;54.35;99421.00;5011911;28;20034;-60
2023/10/26 04:13:30;;;;;;;27.42;13.40;;;;;;;17.97;54.68;99425.38;5045613;28;20402;-60
2023/10/26 04:16:02;;;;;;;21.15;11.70;;;;;;;17.96;54.47;99421.00;5012660;28;20036;-60
2023/10/26 04:18:27;;;;;;;22.83;12.13;;;;;;;17.96;54.70;99423.69;5012242;28;20034;-60
2023/10/26 04:20:53;;;;;;;21.30;12.02;;;;;;;17.95;54.66;99424.72;5012438;28;20080;-60
2023/10/26 04:23:18;;;;;;;23.88;12.00;;;;;;;17.94;54.01;99425.78;5012304;28;20030;-60
2023/10/26 04:25:43;;;;;;;27.52;13.73;;;;;;;17.91;54.05;99423.50;5012322;28;20030;-60
2023/10/26 04:28:09;;;;;;;21.15;11.82;;;;;;;17.91;54.35;99426.22;5019668;28;20056;-60
2023/10/26 04:30:34;;;;;;;25.52;13.30;;;;;;;17.89;54.18;99422.91;5032079;28;20042;-60
2023/10/26 04:33:00;;;;;;;24.20;12.32;;;;;;;17.83;54.28;99426.44;5031934;28;20040;-60
2023/10/26 04:35:25;;;;;;;22.40;11.68;;;;;;;17.79;53.72;99422.47;5033204;28;20439;-60
2023/10/26 04:37:51;;;;;;;20.70;11.38;;;;;;;17.77;54.10;99421.84;5015481;28;20061;-59
2023/10/26 04:40:17;;;;;;;21.20;12.05;;;;;;;17.72;54.35;99424.38;5031847;28;20113;-60
2023/10/26 04:42:42;;;;;;;21.23;11.07;;;;;;;17.68;54.28;99420.41;5015332;28;20437;-60
2023/10/26 04:45:08;;;;;;;21.05;10.98;;;;;;;17.64;54.25;99419.16;5032328;28;20056;-60
2023/10/26 04:47:33;;;;;;;21.48;11.65;;;;;;;17.61;54.15;99414.16;5031981;28;20087;-60
2023/10/26 04:49:58;;;;;;;21.23;11.45;;;;;;;17.59;53.96;99415.41;5033257;28;20117;-60
2023/10/26 04:52:24;;;;;;;21.58;11.40;;;;;;;17.54;53.86;99420.59;5015152;28;20048;-60
2023/10/26 04:54:49;;;;;;;21.05;10.30;;;;;;;17.48;54.27;99414.13;5031838;28;20034;-60
2023/10/26 04:57:15;;;;;;;24.17;11.95;;;;;;;17.45;54.30;99414.53;5032804;28;20408;-60
2023/10/26 04:59:40;;;;;;;20.02;11.23;;;;;;;17.39;53.60;99413.47;5032855;28;20044;-60
2023/10/26 05:02:06;;;;;;;23.50;12.20;;;;;;;17.37;54.61;99412.03;5031482;28;20029;-60
2023/10/26 05:04:31;;;;;;;25.02;11.27;;;;;;;17.32;53.98;99403.69;5014940;28;20130;-60
2023/10/26 05:06:56;;;;;;;16.35;8.60;;;;;;;17.25;53.75;99403.69;5031725;28;20030;-60
2023/10/26 05:09:22;;;;;;;16.00;8.90;;;;;;;17.20;54.00;99405.34;5032997;28;20033;-60
2023/10/26 05:11:49;;;;;;;19.13;9.80;;;;;;;17.14;53.23;99393.47;5031501;28;20037;-60
2023/10/26 05:14:14;;;;;;;17.67;10.20;;;;;;;17.08;53.41;99398.91;5032896;28;20049;-60
2023/10/26 05:16:41;;;;;;;18.00;8.80;;;;;;;17.02;53.27;99397.00;5032678;28;20520;-60
2023/10/26 05:19:07;;;;;;;18.98;9.07;;;;;;;16.96;53.53;99403.25;5032152;28;20113;-60
2023/10/26 05:21:32;;;;;;;16.13;7.97;;;;;;;16.86;53.75;99401.75;5033969;28;20029;-60
2023/10/26 05:23:57;;;;;;;25.48;11.43;;;;;;;16.84;53.27;99401.13;5035418;28;20046;-60
2023/10/26 05:26:23;;;;;;;21.23;10.75;;;;;;;16.80;53.91;99396.34;5036948;28;20034;-60
2023/10/26 05:28:48;;;;;;;22.52;10.77;;;;;;;16.76;53.27;99393.22;5018999;28;20082;-60
2023/10/26 05:31:13;;;;;;;25.10;10.88;;;;;;;16.69;53.35;99388.84;5036851;28;20026;-60
2023/10/26 05:33:38;;;;;;;17.38;9.77;;;;;;;16.68;53.79;99387.16;5035367;28;20087;-60
2023/10/26 05:36:04;;;;;;;17.10;9.23;;;;;;;16.67;53.85;99388.19;5035243;28;20057;-59
2023/10/26 05:38:29;;;;;;;20.60;10.82;;;;;;;16.68;53.81;99392.56;5036122;28;20031;-60
2023/10/26 05:40:55;;;;;;;18.13;8.80;;;;;;;16.66;54.13;99381.97;5036422;28;20034;-59
2023/10/26 05:43:21;;;;;;;17.15;7.95;;;;;;;16.62;53.30;99382.56;5036498;28;20116;-60
2023/10/26 05:45:46;;;;;;;15.27;7.80;;;;;;;16.58;53.61;99384.00;5036533;28;20041;-61
2023/10/26 05:48:12;;;;;;;14.55;8.15;;;;;;;16.52;52.94;99373.97;5015414;28;20033;-59
2023/10/26 05:50:43;;;;;;;14.60;7.85;;;;;;;16.48;53.50;99373.53;5016569;28;20045;-59
2023/10/26 05:53:10;;;;;;;16.13;8.13;;;;;;;16.43;53.32;99370.63;5015297;28;20088;-59
2023/10/26 05:55:35;;;;;;;14.35;7.75;;;;;;;16.42;53.51;99374.34;5020547;28;20485;-60
2023/10/26 05:58:01;;;;;;;15.52;8.23;;;;;;;16.34;53.08;99371.81;5036500;28;20033;-59
2023/10/26 06:00:26;;;;;;;15.23;7.45;;;;;;;16.33;53.23;99378.28;5025257;28;20444;-60
2023/10/26 06:02:52;;;;;;;17.77;8.13;;;;;;;16.32;52.93;99368.50;4998437;28;20062;-59
2023/10/26 06:05:17;;;;;;;18.80;9.55;;;;;;;16.29;53.06;99368.91;5016223;28;20084;-60
2023/10/26 06:07:43;;;;;;;19.10;9.50;;;;;;;16.28;53.68;99368.06;5016266;28;20030;-59
2023/10/26 06:10:10;;;;;;;15.35;8.57;;;;;;;16.30;52.91;99365.97;5014949;28;20034;-60
2023/10/26 06:12:35;;;;;;;19.98;9.43;;;;;;;16.33;53.69;99369.34;5015375;28;20173;-60
2023/10/26 06:15:01;;;;;;;20.85;10.18;;;;;;;16.36;53.30;99369.75;4998754;28;20513;-60
2023/10/26 06:17:26;;;;;;;17.35;9.35;;;;;;;16.41;53.29;99378.09;5014988;28;20387;-60
2023/10/26 06:19:52;;;;;;;18.45;9.07;;;;;;;16.43;54.15;99373.31;5015994;28;20164;-59
2023/10/26 06:22:17;;;;;;;20.55;9.73;;;;;;;16.44;53.44;99372.28;5014663;28;20069;-60
2023/10/26 06:24:44;;;;;;;21.38;10.38;;;;;;;16.50;53.83;99374.16;5015830;28;20036;-60
2023/10/26 06:27:09;;;;;;;17.30;9.40;;;;;;;16.53;54.37;99370.22;5014761;28;20081;-60
2023/10/26 06:29:34;;;;;;;16.67;8.07;;;;;;;16.53;53.25;99371.09;5014656;28;20026;-60
2023/10/26 06:32:00;;;;;;;16.10;8.00;;;;;;;16.59;53.63;99372.97;5015473;28;20038;-60
2023/10/26 06:34:25;;;;;;;18.73;8.73;;;;;;;16.62;53.71;99379.84;5014393;28;20040;-60
2023/10/26 06:36:50;;;;;;;18.80;9.43;;;;;;;16.65;53.24;99377.56;5015912;28;20040;-59
2023/10/26 06:39:16;;;;;;;18.52;9.00;;;;;;;16.66;54.28;99387.38;5014444;28;20041;-60
2023/10/26 06:41:41;;;;;;;16.13;8.60;;;;;;;16.70;54.06;99393.19;4997111;28;20124;-60
2023/10/26 06:44:06;;;;;;;23.00;10.07;;;;;;;16.72;53.59;99381.13;5014410;28;20117;-59
2023/10/26 06:46:32;;;;;;;20.23;9.80;;;;;;;16.75;54.47;99378.00;5014504;28;20026;-59
2023/10/26 06:48:57;;;;;;;24.13;11.02;;;;;;;16.80;53.83;99372.00;5014263;28;20121;-60
2023/10/26 06:51:22;;;;;;;20.63;10.38;;;;;;;16.82;54.04;99368.06;5014171;28;20029;-60
2023/10/26 06:53:48;;;;;;;19.67;10.90;;;;;;;16.87;54.39;99368.28;5013192;28;20038;-60
2023/10/26 06:56:13;;;;;;;19.52;10.75;;;;;;;16.91;54.24;99362.44;5014371;28;20026;-60
2023/10/26 06:58:39;;;;;;;21.95;10.45;;;;;;;16.97;54.50;99361.63;4997279;28;20034;-60
2023/10/26 07:01:08;;;;;;;23.05;11.05;;;;;;;17.02;53.97;99356.44;5003485;28;20080;-60
2023/10/26 07:03:34;;;;;;;20.00;9.95;;;;;;;17.07;54.20;99362.06;5017108;28;20052;-60
2023/10/26 07:06:03;;;;;;;20.75;10.70;;;;;;;17.11;53.85;99358.75;5033430;28;20037;-60
2023/10/26 07:08:28;;;;;;;20.83;9.85;;;;;;;17.13;53.58;99356.66;5017780;28;20458;-60
2023/10/26 07:10:54;;;;;;;17.98;9.43;;;;;;;17.18;53.85;99358.72;5034690;28;20497;-59
2023/10/26 07:13:20;;;;;;;20.20;10.00;;;;;;;17.26;53.79;99363.94;5033315;28;20065;-61
2023/10/26 07:15:45;;;;;;;21.23;10.20;;;;;;;17.30;54.30;99363.31;5035430;28;20512;-63
2023/10/26 07:18:12;;;;;;;22.35;10.45;;;;;;;17.36;53.32;99367.06;5034828;28;20038;-60
2023/10/26 07:20:38;;;;;;;24.05;11.23;;;;;;;17.41;53.93;99356.44;5034250;28;20026;-64
2023/10/26 07:23:03;;;;;;;20.67;11.50;;;;;;;17.42;53.82;99353.50;5034506;28;20084;-60
2023/10/26 07:25:28;;;;;;;21.05;10.65;;;;;;;17.52;53.54;99365.81;5033092;28;20120;-59
2023/10/26 07:27:54;;;;;;;22.70;12.00;;;;;;;17.55;53.73;99363.53;5033282;28;20083;-60
2023/10/26 07:30:19;;;;;;;23.08;10.93;;;;;;;17.60;54.07;99363.75;5016010;28;20179;-62
2023/10/26 07:32:44;;;;;;;25.23;11.93;;;;;;;17.70;53.58;99357.91;5034052;28;20029;-60
2023/10/26 07:35:10;;;;;;;24.05;10.48;;;;;;;17.79;53.59;99352.03;5032994;28;20036;-61
2023/10/26 07:37:35;;;;;;;19.80;10.57;;;;;;;17.88;53.42;99356.19;5032722;28;20099;-60
2023/10/26 07:40:00;;;;;;;23.85;12.75;;;;;;;17.93;53.32;99359.09;5032703;28;20040;-60
2023/10/26 07:42:26;;;;;;;21.00;10.40;;;;;;;17.99;53.76;99347.41;5032869;28;20443;-61
2023/10/26 07:44:53;;;;;;;21.95;11.63;;;;;;;18.10;53.64;99354.03;5031699;28;20506;-60
2023/10/26 07:47:18;;;;;;;26.45;11.25;;;;;;;18.13;53.17;99356.31;5032695;28;20025;-60
2023/10/26 07:49:45;;;;;;;25.08;11.80;;;;;;;18.20;53.67;99348.19;5032991;28;20381;-60
2023/10/26 07:52:10;;;;;;;23.50;11.40;;;;;;;18.27;53.61;99346.25;5032636;28;20029;-60
2023/10/26 07:54:35;;;;;;;22.48;11.18;;;;;;;18.35;53.02;99346.00;5033751;28;20394;-60
2023/10/26 07:57:01;;;;;;;24.63;11.57;;;;;;;18.39;52.97;99353.53;5033701;28;20460;-60
2023/10/26 07:59:27;;;;;;;23.67;11.00;;;;;;;18.45;53.41;99352.63;5032197;28;20091;-60
2023/10/26 08:01:52;;;;;;;22.77;12.27;;;;;;;18.52;52.57;99353.47;5032137;28;20049;-61
2023/10/26 08:04:18;;;;;;;25.13;11.60;;;;;;;18.56;52.97;99368.25;5032101;28;20049;-60
2023/10/26 08:06:43;;;;;;;19.90;10.93;;;;;;;18.63;52.75;99370.09;5033707;28;20052;-60
2023/10/26 08:09:08;;;;;;;26.05;11.98;;;;;;;18.62;53.02;99371.97;5033300;28;20112;-60
2023/10/26 08:11:34;;;;;;;24.02;11.18;;;;;;;18.60;53.39;99371.38;5032246;28;20029;-60
2023/10/26 08:13:59;;;;;;;26.27;11.57;;;;;;;18.65;52.98;99379.69;5032309;28;20039;-60
2023/10/26 08:16:25;;;;;;;23.23;11.43;;;;;;;18.67;52.57;99366.75;5032369;28;20049;-60
2023/10/26 08:18:51;;;;;;;20.88;10.15;;;;;;;18.77;52.32;99358.13;5032124;28;20041;-60
2023/10/26 08:21:16;;;;;;;20.15;10.65;;;;;;;18.92;52.43;99351.38;5032603;28;20036;-60
2023/10/26 08:23:42;;;;;;;19.63;10.23;;;;;;;19.06;52.83;99352.94;5032103;28;20025;-60
2023/10/26 08:26:09;;;;;;;19.52;10.52;;;;;;;19.21;51.93;99368.09;5032151;28;20030;-60
2023/10/26 08:28:35;;;;;;;17.65;9.50;;;;;;;19.21;52.29;99368.09;5031960;28;20013;-60
2023/10/26 08:31:03;;;;;;;18.05;9.82;;;;;;;19.19;52.60;99366.41;5030989;28;20029;-64
2023/10/26 08:33:31;;;;;;;19.30;10.00;;;;;;;19.27;52.33;99372.59;5015835;28;20477;-60
2023/10/26 08:35:57;;;;;;;18.48;9.85;;;;;;;19.38;52.05;99374.59;5033014;28;20404;-60
2023/10/26 08:38:23;;;;;;;19.60;10.15;;;;;;;19.39;51.92;99368.16;5015288;28;20030;-60
2023/10/26 08:40:52;;;;;;;20.42;10.27;;;;;;;19.50;51.81;99371.00;5031868;28;20033;-60
2023/10/26 08:43:19;;;;;;;18.92;9.77;;;;;;;19.59;51.67;99369.66;5032563;28;20420;-60
2023/10/26 08:45:48;;;;;;;21.58;10.15;;;;;;;19.68;51.86;99383.81;5032088;28;20041;-60
2023/10/26 08:48:18;;;;;;;17.33;9.73;;;;;;;19.75;51.96;99388.09;5031896;28;20362;-60
2023/10/26 08:50:48;;;;;;;16.52;9.90;;;;;;;19.79;51.38;99393.09;5031999;28;20374;-60
2023/10/26 08:53:14;;;;;;;17.17;9.13;;;;;;;19.81;51.77;99383.66;5015306;28;20040;-60
2023/10/26 08:55:41;;;;;;;22.40;9.18;;;;;;;19.89;50.97;99385.25;5031443;28;20029;-60
2023/10/26 08:58:07;;;;;;;17.77;8.57;;;;;;;20.22;50.89;99383.00;5031610;28;20041;-60
2023/10/26 09:00:34;;;;;;;20.17;9.05;;;;;;;20.40;50.81;99384.94;5031611;28;20033;-60
2023/10/26 09:03:00;;;;;;;15.65;8.35;;;;;;;20.53;50.06;99377.44;5032918;28;20072;-60
2023/10/26 09:05:25;;;;;;;19.73;10.60;;;;;;;20.58;50.70;99376.72;5028061;28;20057;-60
2023/10/26 09:07:53;;;;;;;17.42;9.20;;;;;;;20.64;50.63;99375.81;5013295;28;20065;-60
2023/10/26 09:10:29;;;;;;;17.40;9.82;;;;;;;20.83;49.62;99372.00;5011857;28;20030;-60
2023/10/26 09:13:00;;;;;;;15.27;8.75;;;;;;;21.20;49.64;99370.00;4995376;28;20069;-60
2023/10/26 09:15:25;;;;;;;15.38;7.95;;;;;;;21.13;48.87;99372.00;4995517;28;20048;-60
2023/10/26 09:17:53;;;;;;;16.02;8.50;;;;;;;21.11;49.39;99372.22;5011834;28;20117;-60
2023/10/26 09:20:21;;;;;;;12.95;7.70;;;;;;;21.03;49.97;99364.38;5011785;28;20037;-60
2023/10/26 09:22:46;;;;;;;16.38;8.98;;;;;;;21.06;49.85;99353.00;5012901;28;20049;-60
2023/10/26 09:25:13;;;;;;;13.68;8.77;;;;;;;21.19;49.87;99352.81;5015486;28;20038;-60
2023/10/26 09:27:40;;;;;;;15.90;9.13;;;;;;;21.27;48.80;99352.47;5031459;28;20033;-60
2023/10/26 09:30:08;;;;;;;17.75;8.85;;;;;;;21.22;49.44;99349.63;5014924;28;20040;-60
2023/10/26 09:32:35;;;;;;;17.73;8.57;;;;;;;21.14;48.73;99360.88;5014971;28;20512;-60
2023/10/26 09:35:01;;;;;;;16.80;8.73;;;;;;;21.04;49.75;99355.16;5031440;28;20040;-60
2023/10/26 09:37:27;;;;;;;14.88;8.48;;;;;;;20.97;49.62;99354.41;5031330;28;20520;-60
2023/10/26 09:39:53;;;;;;;18.17;10.32;;;;;;;20.90;49.73;99357.25;5014800;28;20049;-60
2023/10/26 09:42:19;;;;;;;14.95;8.52;;;;;;;20.80;50.11;99353.41;5031293;28;20037;-60
2023/10/26 09:44:44;;;;;;;13.90;7.88;;;;;;;20.76;49.63;99358.50;5014810;28;20041;-60
2023/10/26 09:47:10;;;;;;;15.30;8.63;;;;;;;20.64;50.01;99359.50;5032608;28;20026;-59
2023/10/26 09:49:36;;;;;;;13.77;8.20;;;;;;;20.56;49.76;99365.25;5008440;28;20061;-60
2023/10/26 09:52:01;;;;;;;17.15;8.90;;;;;;;20.45;49.82;99347.81;5011693;28;20498;-60
2023/10/26 09:54:29;;;;;;;17.60;9.52;;;;;;;20.42;49.32;99355.59;5011385;28;20409;-60
2023/10/26 09:57:03;;;;;;;16.90;8.80;;;;;;;20.39;49.82;99345.16;5010703;28;20038;-60
2023/10/26 09:59:28;;;;;;;23.65;9.60;;;;;;;20.32;49.74;99340.63;5011379;28;20457;-60
2023/10/26 10:01:54;;;;;;;17.20;9.27;;;;;;;20.27;49.86;99329.63;4994617;28;20033;-60
2023/10/26 10:04:35;;;;;;;15.02;8.35;;;;;;;20.23;49.96;99320.25;5012689;28;20057;-60
2023/10/26 10:07:02;;;;;;;18.08;8.10;;;;;;;20.18;50.26;99317.34;5011811;28;20121;-60
2023/10/26 10:09:28;;;;;;;17.88;8.00;;;;;;;20.11;49.71;99316.63;5014692;28;20029;-60
2023/10/26 10:12:06;;;;;;;14.70;7.43;;;;;;;20.10;50.01;99328.53;4998717;28;20044;-60
2023/10/26 10:14:46;;;;;;;16.50;8.27;;;;;;;20.10;50.41;99325.03;5016231;28;20091;-60
2023/10/26 10:17:12;;;;;;;13.95;8.43;;;;;;;20.08;50.46;99327.94;5014435;28;20046;-60
2023/10/26 10:19:40;;;;;;;18.92;8.73;;;;;;;20.10;50.09;99333.19;5014492;28;20025;-60
2023/10/26 10:22:36;;;;;;;16.83;9.07;;;;;;;20.12;50.19;99334.59;5014563;28;20022;-59
2023/10/26 10:25:02;;;;;;;13.73;8.65;;;;;;;20.13;50.12;99325.38;5015634;28;20038;-60
2023/10/26 10:27:27;;;;;;;16.35;9.20;;;;;;;20.14;49.98;99321.59;5014570;28;20029;-60
2023/10/26 10:29:56;;;;;;;21.35;10.15;;;;;;;20.18;50.09;99325.50;4998130;28;20037;-60
2023/10/26 10:32:48;;;;;;;17.85;9.05;;;;;;;20.26;50.02;99319.81;5015644;28;20087;-60
2023/10/26 10:35:39;;;;;;;16.05;8.88;;;;;;;20.34;49.65;99326.81;5006324;28;20121;-60
2023/10/26 10:38:14;;;;;;;16.85;9.23;;;;;;;20.45;49.75;99317.06;5014664;28;20053;-60
2023/10/26 10:40:40;;;;;;;19.27;8.52;;;;;;;20.54;49.74;99304.81;5016109;28;20044;-60
2023/10/26 10:43:05;;;;;;;21.20;10.15;;;;;;;20.71;49.34;99305.81;5014549;28;20037;-60
2023/10/26 10:45:31;;;;;;;19.60;9.05;;;;;;;20.81;49.66;99295.19;5014243;28;20041;-60
2023/10/26 10:47:57;;;;;;;16.95;9.07;;;;;;;20.96;49.68;99295.59;5014051;28;20497;-60
2023/10/26 10:50:24;;;;;;;17.40;8.95;;;;;;;21.12;48.93;99296.81;5014062;28;20401;-60
2023/10/26 10:52:54;;;;;;;16.98;8.93;;;;;;;21.44;49.28;99290.78;4997850;28;20034;-60
2023/10/26 10:55:30;;;;;;;19.10;8.77;;;;;;;22.30;47.81;99278.22;4997721;28;20030;-60
2023/10/26 10:57:55;;;;;;;14.60;8.15;;;;;;;22.87;47.54;99279.88;4997781;28;20030;-60
2023/10/26 11:00:24;;;;;;;11.75;7.30;;;;;;;22.74;47.68;99271.16;5013795;28;20124;-61
2023/10/26 11:02:52;;;;;;;12.30;7.50;;;;;;;22.50;48.14;99257.59;4997611;28;20050;-60
2023/10/26 11:05:18;;;;;;;17.48;8.55;;;;;;;22.32;48.10;99266.00;5013679;28;20038;-60
2023/10/26 11:07:43;;;;;;;13.65;7.60;;;;;;;22.14;48.01;99259.91;5014280;28;20034;-60
2023/10/26 11:10:09;;;;;;;14.38;8.25;;;;;;;22.01;48.60;99248.19;5013687;28;20083;-60
2023/10/26 11:12:34;;;;;;;13.40;7.28;;;;;;;21.94;49.24;99246.69;5014945;28;20030;-60
2023/10/26 11:15:00;;;;;;;14.60;8.18;;;;;;;21.84;49.08;99251.88;4997342;28;20049;-61
2023/10/26 11:17:27;;;;;;;11.77;6.90;;;;;;;21.73;48.23;99250.84;5014882;28;20119;-61